createdAt,value
2018-12-02T00:01:07.175Z,10.25
2018-12-02T00:04:12.337Z,11.55
2018-12-02T00:07:16.346Z,7.85
2018-12-02T00:10:20.918Z,9.55
2018-12-02T00:13:24.885Z,9.38
2018-12-02T00:16:28.899Z,8.28
2018-12-02T00:19:32.912Z,8.78
2018-12-02T00:22:36.903Z,9.23
2018-12-02T00:25:40.938Z,7.08
2018-12-02T00:28:44.955Z,9.60
2018-12-02T00:31:49.190Z,7.10
2018-12-02T00:34:53.191Z,7.45
2018-12-02T00:37:59.371Z,6.70
2018-12-02T00:41:03.363Z,8.50
2018-12-02T00:44:07.367Z,6.65
2018-12-02T00:47:11.395Z,5.75
2018-12-02T00:50:17.031Z,6.05
2018-12-02T00:53:21.054Z,5.53
2018-12-02T00:56:24.206Z,5.12
2018-12-02T00:59:27.760Z,6.22
2018-12-02T01:02:31.831Z,5.83
2018-12-02T01:05:35.783Z,4.80
2018-12-02T01:08:39.786Z,6.95
2018-12-02T01:11:43.815Z,7.45
2018-12-02T01:14:47.815Z,7.35
2018-12-02T01:17:51.931Z,6.58
2018-12-02T01:20:55.859Z,5.17
2018-12-02T01:23:59.914Z,7.03
2018-12-02T01:27:03.896Z,8.40
2018-12-02T01:30:15.591Z,6.70
2018-12-02T01:33:19.606Z,5.72
2018-12-02T01:36:23.622Z,7.10
2018-12-02T01:39:27.634Z,5.60
2018-12-02T01:42:31.638Z,6.58
2018-12-02T01:45:35.768Z,8.03
2018-12-02T01:48:39.776Z,7.53
2018-12-02T01:51:43.792Z,9.58
2018-12-02T01:54:48.020Z,7.10
2018-12-02T01:57:52.738Z,9.45
2018-12-02T02:00:56.839Z,7.85
2018-12-02T02:04:00.963Z,7.33
2018-12-02T02:07:05.180Z,8.33
2018-12-02T02:10:12.339Z,9.90
2018-12-02T02:13:16.304Z,7.62
2018-12-02T02:16:20.344Z,6.03
2018-12-02T02:19:24.323Z,8.05
2018-12-02T02:22:28.325Z,8.28
2018-12-02T02:25:32.455Z,6.40
2018-12-02T02:28:36.991Z,11.80
2018-12-02T02:31:41.000Z,8.00
2018-12-02T02:34:45.001Z,7.17
2018-12-02T02:37:49.740Z,7.03
2018-12-02T02:40:53.755Z,8.43
2018-12-02T02:43:57.949Z,10.90
2018-12-02T02:47:01.989Z,8.77
2018-12-02T02:50:11.197Z,7.22
2018-12-02T02:53:15.239Z,6.27
2018-12-02T02:56:19.278Z,10.83
2018-12-02T02:59:23.272Z,9.00
2018-12-02T03:02:27.407Z,7.47
2018-12-02T03:05:31.395Z,7.93
2018-12-02T03:08:35.408Z,9.15
2018-12-02T03:11:39.431Z,8.25
2018-12-02T03:14:43.433Z,7.42
2018-12-02T03:17:47.653Z,8.78
2018-12-02T03:20:51.694Z,8.45
2018-12-02T03:23:55.719Z,7.87
2018-12-02T03:26:59.703Z,8.63
2018-12-02T03:30:04.764Z,7.47
2018-12-02T03:33:08.756Z,8.33
2018-12-02T03:36:12.787Z,6.57
2018-12-02T03:39:16.782Z,7.67
2018-12-02T03:42:20.830Z,7.90
2018-12-02T03:45:28.303Z,8.00
2018-12-02T03:48:32.297Z,7.42
2018-12-02T03:51:36.359Z,6.77
2018-12-02T03:54:40.328Z,8.30
2018-12-02T03:57:44.542Z,7.27
2018-12-02T04:00:48.712Z,7.50
2018-12-02T04:03:52.680Z,6.93
2018-12-02T04:06:56.926Z,6.90
2018-12-02T04:10:01.137Z,7.10
2018-12-02T04:13:05.371Z,7.07
2018-12-02T04:16:09.360Z,6.87
2018-12-02T04:19:13.407Z,8.05
2018-12-02T04:22:17.377Z,7.57
2018-12-02T04:25:25.359Z,6.33
2018-12-02T04:28:29.632Z,9.30
2018-12-02T04:31:33.637Z,5.80
2018-12-02T04:34:37.721Z,6.53
2018-12-02T04:37:41.859Z,7.40
2018-12-02T04:40:46.591Z,6.73
2018-12-02T04:43:50.613Z,6.77
2018-12-02T04:46:54.688Z,7.70
2018-12-02T04:49:58.831Z,7.43
2018-12-02T04:53:02.863Z,7.10
2018-12-02T04:56:07.122Z,5.93
2018-12-02T04:59:11.090Z,7.20
2018-12-02T05:02:15.139Z,8.13
2018-12-02T05:05:20.911Z,6.30
2018-12-02T05:08:24.893Z,6.23
2018-12-02T05:11:28.879Z,6.60
2018-12-02T05:14:32.945Z,6.37
2018-12-02T05:17:36.909Z,6.15
2018-12-02T05:20:40.963Z,5.50
2018-12-02T05:23:44.931Z,7.03
2018-12-02T05:26:49.283Z,6.53
2018-12-02T05:29:53.279Z,5.30
2018-12-02T05:32:57.340Z,6.27
2018-12-02T05:36:01.918Z,7.10
2018-12-02T05:39:09.463Z,6.10
2018-12-02T05:42:18.585Z,6.40
2018-12-02T05:45:22.946Z,6.27
2018-12-02T05:48:26.979Z,9.23
2018-12-02T05:51:31.042Z,7.17
2018-12-02T05:54:35.023Z,7.47
2018-12-02T05:57:39.071Z,6.93
2018-12-02T06:00:43.128Z,6.63
2018-12-02T06:03:47.163Z,6.97
2018-12-02T06:06:51.221Z,6.97
2018-12-02T06:09:55.182Z,6.27
2018-12-02T06:12:59.226Z,5.70
2018-12-02T06:16:03.229Z,6.33
2018-12-02T06:19:07.295Z,5.73
2018-12-02T06:22:11.247Z,7.03
2018-12-02T06:25:15.604Z,5.80
2018-12-02T06:28:19.574Z,6.13
2018-12-02T06:31:23.632Z,6.27
2018-12-02T06:34:27.618Z,5.87
2018-12-02T06:37:31.650Z,5.87
2018-12-02T06:40:35.671Z,5.13
2018-12-02T06:43:39.660Z,5.00
2018-12-02T06:46:43.703Z,6.42
2018-12-02T06:49:47.679Z,5.57
2018-12-02T06:52:52.032Z,5.63
2018-12-02T06:56:02.275Z,5.78
2018-12-02T06:59:16.743Z,6.10
2018-12-02T07:02:38.864Z,5.67
2018-12-02T07:05:45.338Z,6.13
2018-12-02T07:08:49.339Z,6.23
2018-12-02T07:11:53.471Z,4.93
2018-12-02T07:14:57.603Z,5.00
2018-12-02T07:18:03.820Z,5.27
2018-12-02T07:21:11.356Z,5.57
2018-12-02T07:24:18.446Z,7.10
2018-12-02T07:27:22.586Z,5.57
2018-12-02T07:30:26.558Z,5.13
2018-12-02T07:33:30.683Z,6.13
2018-12-02T07:36:34.708Z,5.43
2018-12-02T07:39:47.540Z,8.40
2018-12-02T07:42:51.435Z,4.60
2018-12-02T07:45:55.503Z,5.75
2018-12-02T07:48:59.467Z,3.87
2018-12-02T07:52:03.499Z,4.40
2018-12-02T07:55:08.775Z,5.60
2018-12-02T07:58:16.889Z,6.30
2018-12-02T08:01:21.052Z,5.13
2018-12-02T08:04:25.087Z,6.92
2018-12-02T08:07:29.077Z,5.70
2018-12-02T08:10:33.319Z,6.43
2018-12-02T08:13:37.302Z,6.57
2018-12-02T08:16:41.379Z,5.85
2018-12-02T08:19:45.333Z,6.20
2018-12-02T08:22:51.435Z,5.30
2018-12-02T08:25:53.679Z,6.90
2018-12-02T08:28:57.716Z,5.62
2018-12-02T08:32:01.734Z,6.33
2018-12-02T08:35:06.027Z,5.50
2018-12-02T08:38:11.199Z,6.57
2018-12-02T08:41:15.279Z,5.83
2018-12-02T08:44:19.323Z,5.60
2018-12-02T08:47:23.355Z,6.83
2018-12-02T08:50:27.310Z,6.08
2018-12-02T08:53:31.407Z,6.15
2018-12-02T08:56:35.355Z,5.00
2018-12-02T08:59:39.398Z,5.93
2018-12-02T09:02:44.150Z,5.87
2018-12-02T09:05:48.135Z,6.87
2018-12-02T09:08:52.119Z,6.80
2018-12-02T09:11:56.175Z,5.73
2018-12-02T09:15:00.326Z,6.62
2018-12-02T09:18:04.355Z,4.72
2018-12-02T09:21:08.554Z,4.97
2018-12-02T09:24:12.507Z,5.67
2018-12-02T09:27:16.542Z,5.30
2018-12-02T09:30:22.891Z,5.50
2018-12-02T09:33:26.943Z,6.15
2018-12-02T09:36:30.911Z,4.70
2018-12-02T09:39:34.955Z,4.67
2018-12-02T09:42:39.159Z,4.67
2018-12-02T09:45:43.396Z,5.27
2018-12-02T09:48:47.372Z,5.33
2018-12-02T09:51:51.419Z,5.28
2018-12-02T09:54:55.415Z,5.28
2018-12-02T09:57:59.361Z,4.35
2018-12-02T10:01:03.379Z,5.60
2018-12-02T10:04:07.488Z,6.10
2018-12-02T10:07:11.494Z,6.00
2018-12-02T10:10:22.351Z,6.97
2018-12-02T10:13:23.150Z,9.88
2018-12-02T10:16:27.103Z,11.60
2018-12-02T10:19:31.115Z,8.30
2018-12-02T10:22:35.123Z,5.42
2018-12-02T10:25:39.235Z,5.20
2018-12-02T10:28:43.242Z,6.25
2018-12-02T10:31:47.371Z,5.45
2018-12-02T10:34:51.378Z,5.67
2018-12-02T10:37:55.595Z,6.03
2018-12-02T10:40:59.623Z,5.33
2018-12-02T10:44:03.642Z,7.40
2018-12-02T10:47:07.642Z,4.92
2018-12-02T10:50:15.419Z,5.35
2018-12-02T10:53:20.800Z,6.28
2018-12-02T10:56:24.818Z,4.25
2018-12-02T10:59:28.818Z,6.33
2018-12-02T11:02:32.867Z,4.60
2018-12-02T11:05:36.859Z,5.10
2018-12-02T11:08:41.023Z,5.85
2018-12-02T11:11:45.154Z,7.20
2018-12-02T11:14:49.111Z,5.28
2018-12-02T11:17:53.187Z,6.17
2018-12-02T11:20:57.238Z,7.33
2018-12-02T11:24:01.239Z,10.78
2018-12-02T11:27:05.560Z,10.58
2018-12-02T11:30:15.484Z,7.45
2018-12-02T11:33:19.527Z,10.55
2018-12-02T11:36:23.554Z,7.83
2018-12-02T11:39:27.708Z,8.68
2018-12-02T11:42:31.686Z,8.50
2018-12-02T11:45:35.695Z,6.05
2018-12-02T11:48:39.715Z,10.88
2018-12-02T11:51:43.715Z,7.33
2018-12-02T11:54:47.895Z,9.08
2018-12-02T11:57:52.051Z,7.30
2018-12-02T12:00:56.386Z,9.88
2018-12-02T12:04:00.402Z,8.18
2018-12-02T12:07:04.549Z,16.42
2018-12-02T12:10:28.097Z,26.23
2018-12-02T12:13:32.107Z,19.60
2018-12-02T12:16:36.159Z,17.05
2018-12-02T12:19:40.129Z,13.78
2018-12-02T12:22:44.155Z,10.58
2018-12-02T12:25:48.251Z,8.65
2018-12-02T12:28:52.279Z,6.22
2018-12-02T12:31:56.347Z,9.50
2018-12-02T12:35:00.295Z,10.80
2018-12-02T12:38:04.318Z,13.43
2018-12-02T12:41:09.146Z,10.35
2018-12-02T12:44:13.174Z,9.65
2018-12-02T12:47:17.198Z,8.03
2018-12-02T12:50:21.188Z,8.43
2018-12-02T12:53:25.216Z,7.33
2018-12-02T12:56:29.215Z,7.90
2018-12-02T12:59:33.235Z,8.03
2018-12-02T13:02:37.355Z,8.00
2018-12-02T13:05:41.362Z,6.58
2018-12-02T13:08:45.389Z,5.78
2018-12-02T13:11:49.382Z,7.28
2018-12-02T13:14:53.415Z,9.40
2018-12-02T13:17:58.439Z,6.45
2018-12-02T13:21:02.570Z,6.45
2018-12-02T13:24:06.627Z,21.07
2018-12-02T13:27:10.755Z,29.57
2018-12-02T13:30:16.535Z,43.25
2018-12-02T13:33:20.507Z,35.40
2018-12-02T13:36:24.535Z,41.28
2018-12-02T13:39:28.546Z,26.82
2018-12-02T13:42:32.557Z,19.98
2018-12-02T13:45:36.587Z,21.30
2018-12-02T13:48:40.583Z,17.70
2018-12-02T13:51:44.611Z,17.62
2018-12-02T13:54:48.725Z,18.23
2018-12-02T13:57:52.731Z,10.50
2018-12-02T14:00:56.757Z,15.15
2018-12-02T14:04:00.755Z,10.72
2018-12-02T14:07:04.891Z,14.40
2018-12-02T14:10:10.919Z,8.93
2018-12-02T14:13:22.539Z,11.00
2018-12-02T14:16:37.983Z,10.28
2018-12-02T14:19:43.931Z,10.90
2018-12-02T14:22:47.931Z,8.33
2018-12-02T14:25:52.010Z,8.80
2018-12-02T14:28:59.579Z,6.97
2018-12-02T14:32:06.598Z,7.53
2018-12-02T14:35:10.707Z,7.00
2018-12-02T14:38:14.759Z,6.80
2018-12-02T14:41:18.723Z,6.33
2018-12-02T14:44:22.783Z,8.75
2018-12-02T14:47:26.775Z,9.23
2018-12-02T14:50:30.808Z,11.10
2018-12-02T14:53:34.860Z,8.75
2018-12-02T14:56:39.045Z,5.60
2018-12-02T14:59:43.021Z,4.15
2018-12-02T15:02:47.339Z,9.38
2018-12-02T15:05:52.091Z,4.47
2018-12-02T15:08:56.115Z,5.53
2018-12-02T15:12:00.255Z,6.70
2018-12-02T15:15:04.518Z,6.15
2018-12-02T15:18:08.852Z,4.60
2018-12-02T15:21:13.957Z,8.70
2018-12-02T15:24:18.043Z,4.35
2018-12-02T15:27:22.028Z,4.30
2018-12-02T15:30:26.140Z,5.85
2018-12-02T15:33:30.247Z,4.70
2018-12-02T15:36:34.396Z,3.35
2018-12-02T15:39:38.392Z,5.58
2018-12-02T15:42:43.877Z,4.12
2018-12-02T15:45:47.883Z,3.42
2018-12-02T15:52:17.692Z,6.70
2018-12-02T15:55:25.785Z,4.35
2018-12-02T15:58:29.860Z,8.38
2018-12-02T16:01:33.976Z,7.75
2018-12-02T16:04:37.957Z,12.23
2018-12-02T16:07:41.988Z,8.00
2018-12-02T16:10:46.019Z,9.00
2018-12-02T16:13:50.027Z,7.83
2018-12-02T16:16:54.082Z,7.10
2018-12-02T16:19:58.113Z,5.87
2018-12-02T16:23:02.309Z,4.17
2018-12-02T16:26:06.464Z,6.03
2018-12-02T16:29:10.496Z,4.85
2018-12-02T16:32:14.758Z,5.33
2018-12-02T16:35:19.365Z,4.28
2018-12-02T16:38:23.335Z,3.52
2018-12-02T16:41:27.970Z,4.75
2018-12-02T16:44:32.083Z,8.55
2018-12-02T16:47:36.394Z,5.85
2018-12-02T16:50:41.758Z,4.03
2018-12-02T16:53:45.751Z,4.25
2018-12-02T16:56:50.079Z,4.72
2018-12-02T16:59:54.203Z,3.33
2018-12-02T17:02:58.266Z,5.05
2018-12-02T17:06:02.218Z,3.37
2018-12-02T17:09:16.903Z,3.77
2018-12-02T17:12:22.468Z,3.08
2018-12-02T17:15:26.445Z,3.45
2018-12-02T17:18:30.578Z,4.58
2018-12-02T17:21:34.687Z,3.25
2018-12-02T17:24:38.703Z,3.90
2018-12-02T17:27:44.247Z,2.37
2018-12-02T17:30:52.528Z,9.35
2018-12-02T17:33:56.547Z,5.62
2018-12-02T17:37:00.605Z,4.90
2018-12-02T17:40:08.769Z,9.85
2018-12-02T17:43:13.627Z,7.75
2018-12-02T17:46:17.805Z,11.85
2018-12-02T17:49:21.995Z,9.20
2018-12-02T17:52:26.000Z,11.08
2018-12-02T17:55:30.024Z,6.40
2018-12-02T17:58:34.136Z,9.95
2018-12-02T18:01:38.131Z,8.43
2018-12-02T18:04:42.180Z,10.18
2018-12-02T18:07:46.167Z,8.68
2018-12-02T18:10:50.297Z,8.63
2018-12-02T18:13:54.402Z,7.55
2018-12-02T18:16:58.331Z,7.22
2018-12-02T18:20:02.360Z,8.93
2018-12-02T18:23:06.556Z,5.22
2018-12-02T18:26:10.571Z,8.48
2018-12-02T18:29:14.671Z,8.05
2018-12-02T18:32:19.295Z,6.25
2018-12-02T18:35:35.764Z,6.25
2018-12-02T18:38:41.496Z,5.30
2018-12-02T18:41:47.991Z,5.50
2018-12-02T18:44:52.112Z,5.25
2018-12-02T18:48:04.275Z,7.15
2018-12-02T18:51:08.312Z,5.37
2018-12-02T18:54:12.409Z,7.35
2018-12-02T18:57:16.628Z,5.60
2018-12-02T19:00:25.871Z,7.58
2018-12-02T19:03:29.963Z,7.03
2018-12-02T19:06:34.867Z,5.70
2018-12-02T19:09:39.101Z,5.78
2018-12-02T19:12:43.244Z,5.53
2018-12-02T19:15:47.484Z,6.45
2018-12-02T19:18:51.748Z,7.37
2018-12-02T19:21:56.659Z,6.15
2018-12-02T19:25:00.791Z,7.08
2018-12-02T19:28:04.819Z,5.00
2018-12-02T19:31:08.867Z,5.45
2018-12-02T19:34:13.107Z,5.28
2018-12-02T19:37:17.075Z,4.42
2018-12-02T19:40:21.304Z,6.75
2018-12-02T19:43:25.291Z,5.75
2018-12-02T19:46:29.427Z,4.83
2018-12-02T19:49:34.259Z,5.95
2018-12-02T19:52:38.271Z,8.93
2018-12-02T19:55:42.287Z,5.72
2018-12-02T19:58:46.340Z,6.20
2018-12-02T20:01:50.418Z,9.38
2018-12-02T20:04:54.434Z,5.05
2018-12-02T20:07:59.970Z,5.75
2018-12-02T20:11:03.976Z,4.10
2018-12-02T20:14:08.019Z,6.97
2018-12-02T20:17:12.128Z,5.37
2018-12-02T20:20:22.564Z,4.60
2018-12-02T20:23:31.635Z,3.90
2018-12-02T20:26:35.662Z,3.80
2018-12-02T20:29:39.805Z,4.47
2018-12-02T20:32:43.778Z,3.90
2018-12-02T20:35:47.891Z,4.72
2018-12-02T20:38:51.904Z,5.42
2018-12-02T20:41:56.019Z,3.42
2018-12-02T20:45:00.227Z,3.37
2018-12-02T20:48:04.348Z,4.97
2018-12-02T20:51:08.358Z,5.30
2018-12-02T20:54:12.475Z,2.87
2018-12-02T20:57:16.487Z,3.80
2018-12-02T21:00:20.498Z,2.95
2018-12-02T21:03:27.153Z,4.42
2018-12-02T21:06:31.788Z,3.85
2018-12-02T21:09:35.395Z,6.08
2018-12-02T21:12:40.423Z,5.22
2018-12-02T21:15:44.736Z,5.90
2018-12-02T21:18:48.951Z,3.98
2018-12-02T21:21:52.912Z,3.15
2018-12-02T21:24:56.915Z,2.60
2018-12-02T21:28:00.939Z,2.85
2018-12-02T21:31:05.063Z,2.70
2018-12-02T21:34:09.081Z,3.20
2018-12-02T21:37:13.186Z,2.20
2018-12-02T21:40:17.623Z,2.75
2018-12-02T21:43:21.651Z,3.58
2018-12-02T21:46:25.679Z,5.22
2018-12-02T21:49:29.659Z,4.50
2018-12-02T21:52:33.783Z,3.65
2018-12-02T21:55:37.994Z,5.15
2018-12-02T21:58:42.015Z,7.15
2018-12-02T22:01:46.074Z,4.85
2018-12-02T22:04:50.139Z,9.25
2018-12-02T22:07:54.262Z,13.10
2018-12-02T22:10:59.411Z,8.70
2018-12-02T22:14:03.551Z,5.22
2018-12-02T22:17:07.523Z,9.65
2018-12-02T22:20:15.111Z,9.43
2018-12-02T22:23:19.134Z,6.17
2018-12-02T22:26:23.159Z,3.05
2018-12-02T22:29:27.163Z,7.97
2018-12-02T22:32:31.179Z,3.33
2018-12-02T22:35:35.295Z,4.03
2018-12-02T22:38:39.320Z,4.10
2018-12-02T22:41:43.371Z,4.10
2018-12-02T22:44:47.403Z,5.58
2018-12-02T22:47:51.706Z,7.95
2018-12-02T22:50:56.239Z,4.33
2018-12-02T22:54:00.239Z,6.85
2018-12-02T22:57:04.316Z,4.12
2018-12-02T23:00:20.430Z,3.47
2018-12-02T23:03:24.539Z,7.65
2018-12-02T23:06:28.647Z,4.17
2018-12-02T23:09:33.792Z,7.70
2018-12-02T23:12:37.904Z,6.70
2018-12-02T23:15:42.773Z,3.30
2018-12-02T23:18:46.926Z,4.55
2018-12-02T23:21:50.911Z,2.52
2018-12-02T23:24:55.090Z,8.28
2018-12-02T23:27:59.106Z,1.50
2018-12-02T23:31:03.339Z,1.98
2018-12-02T23:34:07.604Z,3.58
2018-12-02T23:37:11.942Z,3.95
2018-12-02T23:40:20.284Z,3.55
2018-12-02T23:43:24.383Z,5.03
2018-12-02T23:46:28.458Z,1.90
2018-12-02T23:49:32.523Z,3.02
2018-12-02T23:52:36.863Z,3.80
2018-12-02T23:55:40.978Z,5.12
2018-12-02T23:58:45.091Z,2.00
